<?xml version="1.0" encoding="UTF-8" standalone="no" ?>
<gpx xmlns="http://www.topografix.com/GPX/1/1" xmlns:xsi="http://www.w3.org/2001/XMLSchema-instance" xsi:schemaLocation="http://www.topografix.com/GPX/1/1 http://www.topografix.com/GPX/1/1/gpx.xsd" version="1.1" creator="VisuGPX - https://www.visugpx.com">
  <metadata>
    <name>Trace Vosges GR 5 Facile débutant</name>
    <desc><![CDATA[Trace Vosges GR 5 Facile débutant]]></desc>
  </metadata>
  <trk>
    <name><![CDATA[Vosges - GR5-1832733]]></name>
    <extensions>
      <line xmlns="http://www.topografix.com/GPX/gpx_style/0/2">
        <color>0000FF</color>
        <width>4</width>
      </line>
    </extensions>
    <trkseg>
      <trkpt lat="47.87338" lon="7.02789">
        <ele>407</ele>
        <time>2024-05-01T10:25:06Z</time>
      </trkpt>
      <trkpt lat="47.87457" lon="7.02878">
        <ele>412</ele>
        <time>2024-05-01T10:28:04Z</time>
      </trkpt>
      <trkpt lat="47.87581" lon="7.03043">
        <ele>416</ele>
        <time>2024-05-01T10:31:45Z</time>
      </trkpt>
      <trkpt lat="47.87584" lon="7.03157">
        <ele>421</ele>
        <time>2024-05-01T10:33:28Z</time>
      </trkpt>
      <trkpt lat="47.8753" lon="7.0328">
        <ele>423</ele>
        <time>2024-05-01T10:35:39Z</time>
      </trkpt>
      <trkpt lat="47.87414" lon="7.03497">
        <ele>439</ele>
        <time>2024-05-01T10:39:48Z</time>
      </trkpt>
      <trkpt lat="47.87205" lon="7.03606">
        <ele>439</ele>
        <time>2024-05-01T10:44:43Z</time>
      </trkpt>
      <trkpt lat="47.87036" lon="7.03711">
        <ele>414</ele>
        <time>2024-05-01T10:48:47Z</time>
      </trkpt>
      <trkpt lat="47.86977" lon="7.0376">
        <ele>411</ele>
        <time>2024-05-01T10:50:17Z</time>
      </trkpt>
      <trkpt lat="47.86909" lon="7.03755">
        <ele>403</ele>
        <time>2024-05-01T10:51:48Z</time>
      </trkpt>
      <trkpt lat="47.86758" lon="7.03899">
        <ele>409</ele>
        <time>2024-05-01T10:55:48Z</time>
      </trkpt>
      <trkpt lat="47.86752" lon="7.03946">
        <ele>422</ele>
        <time>2024-05-01T10:56:30Z</time>
      </trkpt>
      <trkpt lat="47.86982" lon="7.03878">
        <ele>447</ele>
        <time>2024-05-01T11:01:43Z</time>
      </trkpt>
      <trkpt lat="47.86946" lon="7.03938">
        <ele>463</ele>
        <time>2024-05-01T11:02:55Z</time>
      </trkpt>
      <trkpt lat="47.87061" lon="7.03912">
        <ele>487</ele>
        <time>2024-05-01T11:05:31Z</time>
      </trkpt>
      <trkpt lat="47.8707" lon="7.03953">
        <ele>507</ele>
        <time>2024-05-01T11:06:09Z</time>
      </trkpt>
      <trkpt lat="47.87232" lon="7.03891">
        <ele>541</ele>
        <time>2024-05-01T11:09:52Z</time>
      </trkpt>
      <trkpt lat="47.87315" lon="7.03972">
        <ele>573</ele>
        <time>2024-05-01T11:12:05Z</time>
      </trkpt>
      <trkpt lat="47.87261" lon="7.03982">
        <ele>580</ele>
        <time>2024-05-01T11:13:17Z</time>
      </trkpt>
      <trkpt lat="47.87322" lon="7.04032">
        <ele>588</ele>
        <time>2024-05-01T11:14:50Z</time>
      </trkpt>
      <trkpt lat="47.87286" lon="7.04034">
        <ele>592</ele>
        <time>2024-05-01T11:15:38Z</time>
      </trkpt>
      <trkpt lat="47.87336" lon="7.04089">
        <ele>599</ele>
        <time>2024-05-01T11:17:01Z</time>
      </trkpt>
      <trkpt lat="47.87496" lon="7.04201">
        <ele>616</ele>
        <time>2024-05-01T11:20:57Z</time>
      </trkpt>
      <trkpt lat="47.87591" lon="7.04374">
        <ele>647</ele>
        <time>2024-05-01T11:24:17Z</time>
      </trkpt>
      <trkpt lat="47.87651" lon="7.04426">
        <ele>660</ele>
        <time>2024-05-01T11:25:50Z</time>
      </trkpt>
      <trkpt lat="47.87777" lon="7.04387">
        <ele>669</ele>
        <time>2024-05-01T11:28:42Z</time>
      </trkpt>
      <trkpt lat="47.88005" lon="7.04303">
        <ele>703</ele>
        <time>2024-05-01T11:33:55Z</time>
      </trkpt>
      <trkpt lat="47.88158" lon="7.04413">
        <ele>729</ele>
        <time>2024-05-01T11:37:42Z</time>
      </trkpt>
      <trkpt lat="47.88242" lon="7.04593">
        <ele>744</ele>
        <time>2024-05-01T11:40:58Z</time>
      </trkpt>
      <trkpt lat="47.883" lon="7.04742">
        <ele>743</ele>
        <time>2024-05-01T11:43:32Z</time>
      </trkpt>
      <trkpt lat="47.88391" lon="7.04919">
        <ele>757</ele>
        <time>2024-05-01T11:46:52Z</time>
      </trkpt>
      <trkpt lat="47.88508" lon="7.05013">
        <ele>771</ele>
        <time>2024-05-01T11:49:49Z</time>
      </trkpt>
      <trkpt lat="47.88569" lon="7.05092">
        <ele>788</ele>
        <time>2024-05-01T11:51:37Z</time>
      </trkpt>
      <trkpt lat="47.88609" lon="7.05123">
        <ele>795</ele>
        <time>2024-05-01T11:52:37Z</time>
      </trkpt>
      <trkpt lat="47.88682" lon="7.05113">
        <ele>809</ele>
        <time>2024-05-01T11:54:15Z</time>
      </trkpt>
      <trkpt lat="47.8883" lon="7.0516">
        <ele>843</ele>
        <time>2024-05-01T11:57:37Z</time>
      </trkpt>
      <trkpt lat="47.88963" lon="7.05222">
        <ele>850</ele>
        <time>2024-05-01T12:00:43Z</time>
      </trkpt>
      <trkpt lat="47.89074" lon="7.05264">
        <ele>861</ele>
        <time>2024-05-01T12:03:16Z</time>
      </trkpt>
      <trkpt lat="47.89135" lon="7.05337">
        <ele>865</ele>
        <time>2024-05-01T12:05:00Z</time>
      </trkpt>
      <trkpt lat="47.892" lon="7.05496">
        <ele>873</ele>
        <time>2024-05-01T12:07:47Z</time>
      </trkpt>
      <trkpt lat="47.89248" lon="7.05582">
        <ele>887</ele>
        <time>2024-05-01T12:09:27Z</time>
      </trkpt>
      <trkpt lat="47.89299" lon="7.05616">
        <ele>900</ele>
        <time>2024-05-01T12:10:41Z</time>
      </trkpt>
      <trkpt lat="47.8936" lon="7.05731">
        <ele>929</ele>
        <time>2024-05-01T12:12:52Z</time>
      </trkpt>
      <trkpt lat="47.89392" lon="7.05885">
        <ele>948</ele>
        <time>2024-05-01T12:15:17Z</time>
      </trkpt>
      <trkpt lat="47.89388" lon="7.06073">
        <ele>970</ele>
        <time>2024-05-01T12:18:05Z</time>
      </trkpt>
      <trkpt lat="47.8944" lon="7.0618">
        <ele>973</ele>
        <time>2024-05-01T12:20:03Z</time>
      </trkpt>
      <trkpt lat="47.89484" lon="7.06365">
        <ele>1000</ele>
        <time>2024-05-01T12:22:59Z</time>
      </trkpt>
      <trkpt lat="47.89597" lon="7.06668">
        <ele>1035</ele>
        <time>2024-05-01T12:28:09Z</time>
      </trkpt>
      <trkpt lat="47.89643" lon="7.06882">
        <ele>1034</ele>
        <time>2024-05-01T12:31:30Z</time>
      </trkpt>
      <trkpt lat="47.89663" lon="7.07007">
        <ele>1059</ele>
        <time>2024-05-01T12:33:25Z</time>
      </trkpt>
      <trkpt lat="47.89678" lon="7.07101">
        <ele>1086</ele>
        <time>2024-05-01T12:34:52Z</time>
      </trkpt>
      <trkpt lat="47.89679" lon="7.07271">
        <ele>1125</ele>
        <time>2024-05-01T12:37:24Z</time>
      </trkpt>
      <trkpt lat="47.89681" lon="7.07451">
        <ele>1159</ele>
        <time>2024-05-01T12:40:05Z</time>
      </trkpt>
      <trkpt lat="47.89785" lon="7.07516">
        <ele>1210</ele>
        <time>2024-05-01T12:42:35Z</time>
      </trkpt>
      <trkpt lat="47.89814" lon="7.076">
        <ele>1219</ele>
        <time>2024-05-01T12:44:00Z</time>
      </trkpt>
      <trkpt lat="47.89854" lon="7.07725">
        <ele>1211</ele>
        <time>2024-05-01T12:46:04Z</time>
      </trkpt>
      <trkpt lat="47.89911" lon="7.07858">
        <ele>1202</ele>
        <time>2024-05-01T12:48:25Z</time>
      </trkpt>
      <trkpt lat="47.89965" lon="7.08096">
        <ele>1190</ele>
        <time>2024-05-01T12:52:10Z</time>
      </trkpt>
      <trkpt lat="47.90028" lon="7.08336">
        <ele>1183</ele>
        <time>2024-05-01T12:56:00Z</time>
      </trkpt>
      <trkpt lat="47.90102" lon="7.08506">
        <ele>1169</ele>
        <time>2024-05-01T12:59:02Z</time>
      </trkpt>
      <trkpt lat="47.90209" lon="7.08602">
        <ele>1178</ele>
        <time>2024-05-01T13:01:48Z</time>
      </trkpt>
      <trkpt lat="47.90359" lon="7.08717">
        <ele>1201</ele>
        <time>2024-05-01T13:05:33Z</time>
      </trkpt>
      <trkpt lat="47.90432" lon="7.08892">
        <ele>1213</ele>
        <time>2024-05-01T13:08:38Z</time>
      </trkpt>
      <trkpt lat="47.90463" lon="7.08975">
        <ele>1222</ele>
        <time>2024-05-01T13:10:03Z</time>
      </trkpt>
      <trkpt lat="47.90486" lon="7.09049">
        <ele>1228</ele>
        <time>2024-05-01T13:11:16Z</time>
      </trkpt>
      <trkpt lat="47.90454" lon="7.09085">
        <ele>1229</ele>
        <time>2024-05-01T13:12:09Z</time>
      </trkpt>
      <trkpt lat="47.90439" lon="7.09213">
        <ele>1243</ele>
        <time>2024-05-01T13:14:05Z</time>
      </trkpt>
      <trkpt lat="47.90398" lon="7.09289">
        <ele>1260</ele>
        <time>2024-05-01T13:15:33Z</time>
      </trkpt>
      <trkpt lat="47.9026" lon="7.09296">
        <ele>1281</ele>
        <time>2024-05-01T13:18:37Z</time>
      </trkpt>
      <trkpt lat="47.90199" lon="7.09377">
        <ele>1287</ele>
        <time>2024-05-01T13:20:26Z</time>
      </trkpt>
      <trkpt lat="47.90186" lon="7.09471">
        <ele>1307</ele>
        <time>2024-05-01T13:21:52Z</time>
      </trkpt>
      <trkpt lat="47.90089" lon="7.09557">
        <ele>1322</ele>
        <time>2024-05-01T13:24:22Z</time>
      </trkpt>
      <trkpt lat="47.90001" lon="7.09664">
        <ele>1341</ele>
        <time>2024-05-01T13:26:54Z</time>
      </trkpt>
      <trkpt lat="47.89942" lon="7.09798">
        <ele>1359</ele>
        <time>2024-05-01T13:29:17Z</time>
      </trkpt>
      <trkpt lat="47.89913" lon="7.09907">
        <ele>1370</ele>
        <time>2024-05-01T13:31:02Z</time>
      </trkpt>
      <trkpt lat="47.89945" lon="7.10001">
        <ele>1376</ele>
        <time>2024-05-01T13:32:37Z</time>
      </trkpt>
      <trkpt lat="47.90041" lon="7.09983">
        <ele>1394</ele>
        <time>2024-05-01T13:34:46Z</time>
      </trkpt>
      <trkpt lat="47.90006" lon="7.09986">
        <ele>1390</ele>
        <time>2024-05-01T13:35:32Z</time>
      </trkpt>
      <trkpt lat="47.89976" lon="7.10001">
        <ele>1383</ele>
        <time>2024-05-01T13:36:15Z</time>
      </trkpt>
      <trkpt lat="47.8992" lon="7.09965">
        <ele>1372</ele>
        <time>2024-05-01T13:37:36Z</time>
      </trkpt>
      <trkpt lat="47.89915" lon="7.09879">
        <ele>1366</ele>
        <time>2024-05-01T13:38:53Z</time>
      </trkpt>
      <trkpt lat="47.89961" lon="7.09748">
        <ele>1353</ele>
        <time>2024-05-01T13:41:06Z</time>
      </trkpt>
      <trkpt lat="47.90041" lon="7.09599">
        <ele>1328</ele>
        <time>2024-05-01T13:43:56Z</time>
      </trkpt>
      <trkpt lat="47.90132" lon="7.09531">
        <ele>1318</ele>
        <time>2024-05-01T13:46:12Z</time>
      </trkpt>
      <trkpt lat="47.90191" lon="7.09448">
        <ele>1301</ele>
        <time>2024-05-01T13:48:00Z</time>
      </trkpt>
      <trkpt lat="47.9022" lon="7.09354">
        <ele>1287</ele>
        <time>2024-05-01T13:49:33Z</time>
      </trkpt>
      <trkpt lat="47.90305" lon="7.09294">
        <ele>1277</ele>
        <time>2024-05-01T13:51:38Z</time>
      </trkpt>
      <trkpt lat="47.90368" lon="7.09307">
        <ele>1271</ele>
        <time>2024-05-01T13:53:03Z</time>
      </trkpt>
      <trkpt lat="47.90429" lon="7.09257">
        <ele>1248</ele>
        <time>2024-05-01T13:54:36Z</time>
      </trkpt>
      <trkpt lat="47.90448" lon="7.09161">
        <ele>1238</ele>
        <time>2024-05-01T13:56:06Z</time>
      </trkpt>
      <trkpt lat="47.90472" lon="7.09062">
        <ele>1228</ele>
        <time>2024-05-01T13:57:40Z</time>
      </trkpt>
      <trkpt lat="47.90529" lon="7.09028">
        <ele>1224</ele>
        <time>2024-05-01T13:59:02Z</time>
      </trkpt>
      <trkpt lat="47.90614" lon="7.08994">
        <ele>1205</ele>
        <time>2024-05-01T14:00:59Z</time>
      </trkpt>
      <trkpt lat="47.90666" lon="7.08853">
        <ele>1200</ele>
        <time>2024-05-01T14:03:23Z</time>
      </trkpt>
      <trkpt lat="47.90759" lon="7.08774">
        <ele>1192</ele>
        <time>2024-05-01T14:05:46Z</time>
      </trkpt>
      <trkpt lat="47.9084" lon="7.08772">
        <ele>1190</ele>
        <time>2024-05-01T14:07:34Z</time>
      </trkpt>
      <trkpt lat="47.90869" lon="7.0878">
        <ele>1186</ele>
        <time>2024-05-01T14:08:14Z</time>
      </trkpt>
      <trkpt lat="47.90907" lon="7.08741">
        <ele>1191</ele>
        <time>2024-05-01T14:09:15Z</time>
      </trkpt>
      <trkpt lat="47.90944" lon="7.08597">
        <ele>1184</ele>
        <time>2024-05-01T14:11:33Z</time>
      </trkpt>
      <trkpt lat="47.90953" lon="7.08503">
        <ele>1178</ele>
        <time>2024-05-01T14:12:58Z</time>
      </trkpt>
      <trkpt lat="47.90962" lon="7.08232">
        <ele>1169</ele>
        <time>2024-05-01T14:17:01Z</time>
      </trkpt>
      <trkpt lat="47.9096" lon="7.08098">
        <ele>1166</ele>
        <time>2024-05-01T14:19:01Z</time>
      </trkpt>
      <trkpt lat="47.90942" lon="7.07952">
        <ele>1167</ele>
        <time>2024-05-01T14:21:13Z</time>
      </trkpt>
      <trkpt lat="47.90898" lon="7.07712">
        <ele>1177</ele>
        <time>2024-05-01T14:24:56Z</time>
      </trkpt>
      <trkpt lat="47.90874" lon="7.07558">
        <ele>1179</ele>
        <time>2024-05-01T14:27:17Z</time>
      </trkpt>
      <trkpt lat="47.90881" lon="7.07412">
        <ele>1177</ele>
        <time>2024-05-01T14:29:28Z</time>
      </trkpt>
      <trkpt lat="47.90932" lon="7.07357">
        <ele>1170</ele>
        <time>2024-05-01T14:30:52Z</time>
      </trkpt>
      <trkpt lat="47.91013" lon="7.07201">
        <ele>1165</ele>
        <time>2024-05-01T14:33:49Z</time>
      </trkpt>
      <trkpt lat="47.91099" lon="7.07047">
        <ele>1157</ele>
        <time>2024-05-01T14:36:48Z</time>
      </trkpt>
      <trkpt lat="47.91133" lon="7.06976">
        <ele>1156</ele>
        <time>2024-05-01T14:38:06Z</time>
      </trkpt>
      <trkpt lat="47.91074" lon="7.0695">
        <ele>1165</ele>
        <time>2024-05-01T14:39:28Z</time>
      </trkpt>
      <trkpt lat="47.91016" lon="7.07005">
        <ele>1168</ele>
        <time>2024-05-01T14:41:00Z</time>
      </trkpt>
      <trkpt lat="47.90953" lon="7.06924">
        <ele>1179</ele>
        <time>2024-05-01T14:42:51Z</time>
      </trkpt>
      <trkpt lat="47.90887" lon="7.06817">
        <ele>1188</ele>
        <time>2024-05-01T14:45:01Z</time>
      </trkpt>
      <trkpt lat="47.90862" lon="7.06773">
        <ele>1189</ele>
        <time>2024-05-01T14:45:53Z</time>
      </trkpt>
      <trkpt lat="47.90923" lon="7.06697">
        <ele>1190</ele>
        <time>2024-05-01T14:47:39Z</time>
      </trkpt>
      <trkpt lat="47.90993" lon="7.06595">
        <ele>1194</ele>
        <time>2024-05-01T14:49:49Z</time>
      </trkpt>
      <trkpt lat="47.91074" lon="7.06457">
        <ele>1201</ele>
        <time>2024-05-01T14:52:33Z</time>
      </trkpt>
      <trkpt lat="47.91106" lon="7.06334">
        <ele>1197</ele>
        <time>2024-05-01T14:54:31Z</time>
      </trkpt>
      <trkpt lat="47.91128" lon="7.0617">
        <ele>1198</ele>
        <time>2024-05-01T14:57:01Z</time>
      </trkpt>
      <trkpt lat="47.91153" lon="7.06039">
        <ele>1198</ele>
        <time>2024-05-01T14:59:03Z</time>
      </trkpt>
      <trkpt lat="47.91169" lon="7.05935">
        <ele>1195</ele>
        <time>2024-05-01T15:00:38Z</time>
      </trkpt>
      <trkpt lat="47.91145" lon="7.05817">
        <ele>1206</ele>
        <time>2024-05-01T15:02:28Z</time>
      </trkpt>
      <trkpt lat="47.91129" lon="7.05635">
        <ele>1215</ele>
        <time>2024-05-01T15:05:13Z</time>
      </trkpt>
      <trkpt lat="47.91097" lon="7.05543">
        <ele>1207</ele>
        <time>2024-05-01T15:06:45Z</time>
      </trkpt>
      <trkpt lat="47.91083" lon="7.05457">
        <ele>1204</ele>
        <time>2024-05-01T15:08:05Z</time>
      </trkpt>
      <trkpt lat="47.91077" lon="7.05371">
        <ele>1198</ele>
        <time>2024-05-01T15:09:22Z</time>
      </trkpt>
      <trkpt lat="47.91077" lon="7.051">
        <ele>1183</ele>
        <time>2024-05-01T15:13:24Z</time>
      </trkpt>
      <trkpt lat="47.91162" lon="7.04966">
        <ele>1172</ele>
        <time>2024-05-01T15:16:09Z</time>
      </trkpt>
      <trkpt lat="47.91241" lon="7.04875">
        <ele>1172</ele>
        <time>2024-05-01T15:18:22Z</time>
      </trkpt>
      <trkpt lat="47.91268" lon="7.04784">
        <ele>1175</ele>
        <time>2024-05-01T15:19:52Z</time>
      </trkpt>
      <trkpt lat="47.91305" lon="7.04666">
        <ele>1182</ele>
        <time>2024-05-01T15:21:48Z</time>
      </trkpt>
      <trkpt lat="47.91368" lon="7.04551">
        <ele>1185</ele>
        <time>2024-05-01T15:24:01Z</time>
      </trkpt>
      <trkpt lat="47.91429" lon="7.04463">
        <ele>1191</ele>
        <time>2024-05-01T15:25:54Z</time>
      </trkpt>
      <trkpt lat="47.91587" lon="7.04413">
        <ele>1198</ele>
        <time>2024-05-01T15:29:30Z</time>
      </trkpt>
      <trkpt lat="47.91681" lon="7.04337">
        <ele>1198</ele>
        <time>2024-05-01T15:31:52Z</time>
      </trkpt>
      <trkpt lat="47.91762" lon="7.04194">
        <ele>1185</ele>
        <time>2024-05-01T15:34:40Z</time>
      </trkpt>
      <trkpt lat="47.92022" lon="7.04053">
        <ele>1197</ele>
        <time>2024-05-01T15:40:49Z</time>
      </trkpt>
      <trkpt lat="47.92159" lon="7.03909">
        <ele>1184</ele>
        <time>2024-05-01T15:44:33Z</time>
      </trkpt>
      <trkpt lat="47.9225" lon="7.03763">
        <ele>1178</ele>
        <time>2024-05-01T15:47:31Z</time>
      </trkpt>
      <trkpt lat="47.92308" lon="7.03541">
        <ele>1170</ele>
        <time>2024-05-01T15:51:04Z</time>
      </trkpt>
      <trkpt lat="47.92322" lon="7.03481">
        <ele>1172</ele>
        <time>2024-05-01T15:52:01Z</time>
      </trkpt>
      <trkpt lat="47.92328" lon="7.03346">
        <ele>1179</ele>
        <time>2024-05-01T15:54:02Z</time>
      </trkpt>
      <trkpt lat="47.92313" lon="7.03197">
        <ele>1182</ele>
        <time>2024-05-01T15:56:16Z</time>
      </trkpt>
      <trkpt lat="47.92378" lon="7.03064">
        <ele>1186</ele>
        <time>2024-05-01T15:58:44Z</time>
      </trkpt>
      <trkpt lat="47.9243" lon="7.03025">
        <ele>1188</ele>
        <time>2024-05-01T16:00:01Z</time>
      </trkpt>
      <trkpt lat="47.92439" lon="7.02957">
        <ele>1194</ele>
        <time>2024-05-01T16:01:03Z</time>
      </trkpt>
      <trkpt lat="47.9252" lon="7.02925">
        <ele>1201</ele>
        <time>2024-05-01T16:02:55Z</time>
      </trkpt>
      <trkpt lat="47.92597" lon="7.02863">
        <ele>1210</ele>
        <time>2024-05-01T16:04:52Z</time>
      </trkpt>
      <trkpt lat="47.92667" lon="7.02803">
        <ele>1214</ele>
        <time>2024-05-01T16:06:40Z</time>
      </trkpt>
      <trkpt lat="47.92692" lon="7.02719">
        <ele>1215</ele>
        <time>2024-05-01T16:08:02Z</time>
      </trkpt>
      <trkpt lat="47.92759" lon="7.02581">
        <ele>1217</ele>
        <time>2024-05-01T16:10:34Z</time>
      </trkpt>
      <trkpt lat="47.92788" lon="7.02435">
        <ele>1222</ele>
        <time>2024-05-01T16:12:50Z</time>
      </trkpt>
      <trkpt lat="47.92804" lon="7.02252">
        <ele>1220</ele>
        <time>2024-05-01T16:15:35Z</time>
      </trkpt>
      <trkpt lat="47.92793" lon="7.02111">
        <ele>1218</ele>
        <time>2024-05-01T16:17:42Z</time>
      </trkpt>
      <trkpt lat="47.92768" lon="7.01952">
        <ele>1232</ele>
        <time>2024-05-01T16:20:08Z</time>
      </trkpt>
      <trkpt lat="47.92841" lon="7.01947">
        <ele>1223</ele>
        <time>2024-05-01T16:21:46Z</time>
      </trkpt>
      <trkpt lat="47.93009" lon="7.01936">
        <ele>1218</ele>
        <time>2024-05-01T16:25:30Z</time>
      </trkpt>
      <trkpt lat="47.93204" lon="7.01988">
        <ele>1208</ele>
        <time>2024-05-01T16:29:55Z</time>
      </trkpt>
      <trkpt lat="47.93363" lon="7.01965">
        <ele>1210</ele>
        <time>2024-05-01T16:33:28Z</time>
      </trkpt>
      <trkpt lat="47.93472" lon="7.02048">
        <ele>1211</ele>
        <time>2024-05-01T16:36:11Z</time>
      </trkpt>
      <trkpt lat="47.93542" lon="7.0209">
        <ele>1209</ele>
        <time>2024-05-01T16:37:52Z</time>
      </trkpt>
      <trkpt lat="47.93725" lon="7.02231">
        <ele>1207</ele>
        <time>2024-05-01T16:42:27Z</time>
      </trkpt>
      <trkpt lat="47.9391" lon="7.02304">
        <ele>1214</ele>
        <time>2024-05-01T16:46:42Z</time>
      </trkpt>
      <trkpt lat="47.94184" lon="7.02354">
        <ele>1217</ele>
        <time>2024-05-01T16:52:50Z</time>
      </trkpt>
      <trkpt lat="47.94378" lon="7.02341">
        <ele>1248</ele>
        <time>2024-05-01T16:57:09Z</time>
      </trkpt>
      <trkpt lat="47.94494" lon="7.02325">
        <ele>1258</ele>
        <time>2024-05-01T16:59:45Z</time>
      </trkpt>
      <trkpt lat="47.94606" lon="7.02302">
        <ele>1260</ele>
        <time>2024-05-01T17:02:16Z</time>
      </trkpt>
      <trkpt lat="47.94735" lon="7.022">
        <ele>1248</ele>
        <time>2024-05-01T17:05:31Z</time>
      </trkpt>
      <trkpt lat="47.94929" lon="7.02056">
        <ele>1210</ele>
        <time>2024-05-01T17:10:20Z</time>
      </trkpt>
      <trkpt lat="47.9515" lon="7.01968">
        <ele>1186</ele>
        <time>2024-05-01T17:15:25Z</time>
      </trkpt>
      <trkpt lat="47.95197" lon="7.01928">
        <ele>1179</ele>
        <time>2024-05-01T17:16:37Z</time>
      </trkpt>
      <trkpt lat="47.95267" lon="7.01866">
        <ele>1170</ele>
        <time>2024-05-01T17:18:26Z</time>
      </trkpt>
      <trkpt lat="47.95346" lon="7.01693">
        <ele>1171</ele>
        <time>2024-05-01T17:21:33Z</time>
      </trkpt>
      <trkpt lat="47.95387" lon="7.0149">
        <ele>1177</ele>
        <time>2024-05-01T17:24:42Z</time>
      </trkpt>
      <trkpt lat="47.95522" lon="7.01273">
        <ele>1200</ele>
        <time>2024-05-01T17:29:07Z</time>
      </trkpt>
      <trkpt lat="47.95599" lon="7.01096">
        <ele>1225</ele>
        <time>2024-05-01T17:32:16Z</time>
      </trkpt>
      <trkpt lat="47.95632" lon="7.00916">
        <ele>1230</ele>
        <time>2024-05-01T17:35:02Z</time>
      </trkpt>
      <trkpt lat="47.95639" lon="7.00803">
        <ele>1229</ele>
        <time>2024-05-01T17:36:44Z</time>
      </trkpt>
      <trkpt lat="47.95851" lon="7.00563">
        <ele>1208</ele>
        <time>2024-05-01T17:42:39Z</time>
      </trkpt>
      <trkpt lat="47.95919" lon="7.00485">
        <ele>1203</ele>
        <time>2024-05-01T17:44:33Z</time>
      </trkpt>
      <trkpt lat="47.96056" lon="7.0031">
        <ele>1215</ele>
        <time>2024-05-01T17:48:34Z</time>
      </trkpt>
      <trkpt lat="47.96176" lon="7.00161">
        <ele>1220</ele>
        <time>2024-05-01T17:52:02Z</time>
      </trkpt>
      <trkpt lat="47.96221" lon="6.99984">
        <ele>1218</ele>
        <time>2024-05-01T17:54:51Z</time>
      </trkpt>
      <trkpt lat="47.96268" lon="6.99801">
        <ele>1213</ele>
        <time>2024-05-01T17:57:47Z</time>
      </trkpt>
      <trkpt lat="47.96352" lon="6.99749">
        <ele>1214</ele>
        <time>2024-05-01T17:59:48Z</time>
      </trkpt>
      <trkpt lat="47.96494" lon="6.99697">
        <ele>1206</ele>
        <time>2024-05-01T18:03:03Z</time>
      </trkpt>
      <trkpt lat="47.96596" lon="6.99663">
        <ele>1200</ele>
        <time>2024-05-01T18:05:22Z</time>
      </trkpt>
      <trkpt lat="47.96699" lon="6.99532">
        <ele>1191</ele>
        <time>2024-05-01T18:08:23Z</time>
      </trkpt>
      <trkpt lat="47.96742" lon="6.99485">
        <ele>1192</ele>
        <time>2024-05-01T18:09:34Z</time>
      </trkpt>
      <trkpt lat="47.96852" lon="6.99404">
        <ele>1208</ele>
        <time>2024-05-01T18:12:18Z</time>
      </trkpt>
      <trkpt lat="47.96918" lon="6.9923">
        <ele>1233</ele>
        <time>2024-05-01T18:15:16Z</time>
      </trkpt>
      <trkpt lat="47.97064" lon="6.99177">
        <ele>1240</ele>
        <time>2024-05-01T18:18:37Z</time>
      </trkpt>
      <trkpt lat="47.9713" lon="6.99128">
        <ele>1241</ele>
        <time>2024-05-01T18:20:15Z</time>
      </trkpt>
      <trkpt lat="47.97338" lon="6.99096">
        <ele>1260</ele>
        <time>2024-05-01T18:24:54Z</time>
      </trkpt>
      <trkpt lat="47.97479" lon="6.99036">
        <ele>1262</ele>
        <time>2024-05-01T18:28:10Z</time>
      </trkpt>
      <trkpt lat="47.97617" lon="6.98841">
        <ele>1241</ele>
        <time>2024-05-01T18:32:23Z</time>
      </trkpt>
      <trkpt lat="47.97845" lon="6.98577">
        <ele>1198</ele>
        <time>2024-05-01T18:38:48Z</time>
      </trkpt>
      <trkpt lat="47.97994" lon="6.9848">
        <ele>1186</ele>
        <time>2024-05-01T18:42:25Z</time>
      </trkpt>
      <trkpt lat="47.98219" lon="6.9836">
        <ele>1208</ele>
        <time>2024-05-01T18:47:44Z</time>
      </trkpt>
      <trkpt lat="47.98366" lon="6.98251">
        <ele>1217</ele>
        <time>2024-05-01T18:51:23Z</time>
      </trkpt>
      <trkpt lat="47.98508" lon="6.9811">
        <ele>1216</ele>
        <time>2024-05-01T18:55:11Z</time>
      </trkpt>
      <trkpt lat="47.98645" lon="6.98008">
        <ele>1230</ele>
        <time>2024-05-01T18:58:35Z</time>
      </trkpt>
      <trkpt lat="47.98779" lon="6.98034">
        <ele>1238</ele>
        <time>2024-05-01T19:01:35Z</time>
      </trkpt>
      <trkpt lat="47.99139" lon="6.98097">
        <ele>1256</ele>
        <time>2024-05-01T19:09:39Z</time>
      </trkpt>
      <trkpt lat="47.99469" lon="6.98073">
        <ele>1282</ele>
        <time>2024-05-01T19:17:00Z</time>
      </trkpt>
      <trkpt lat="47.99593" lon="6.98084">
        <ele>1275</ele>
        <time>2024-05-01T19:19:46Z</time>
      </trkpt>
      <trkpt lat="47.99762" lon="6.98024">
        <ele>1283</ele>
        <time>2024-05-01T19:23:37Z</time>
      </trkpt>
      <trkpt lat="47.9992" lon="6.98037">
        <ele>1295</ele>
        <time>2024-05-01T19:27:09Z</time>
      </trkpt>
      <trkpt lat="48.00017" lon="6.98058">
        <ele>1296</ele>
        <time>2024-05-01T19:29:19Z</time>
      </trkpt>
      <trkpt lat="48.00078" lon="6.98094">
        <ele>1289</ele>
        <time>2024-05-01T19:30:47Z</time>
      </trkpt>
      <trkpt lat="48.00141" lon="6.98037">
        <ele>1274</ele>
        <time>2024-05-01T19:32:25Z</time>
      </trkpt>
      <trkpt lat="48.00283" lon="6.98008">
        <ele>1240</ele>
        <time>2024-05-01T19:35:36Z</time>
      </trkpt>
      <trkpt lat="48.00412" lon="6.98">
        <ele>1216</ele>
        <time>2024-05-01T19:38:29Z</time>
      </trkpt>
      <trkpt lat="48.00547" lon="6.98011">
        <ele>1205</ele>
        <time>2024-05-01T19:41:29Z</time>
      </trkpt>
      <trkpt lat="48.00788" lon="6.98102">
        <ele>1260</ele>
        <time>2024-05-01T19:47:01Z</time>
      </trkpt>
      <trkpt lat="48.00858" lon="6.98186">
        <ele>1274</ele>
        <time>2024-05-01T19:49:01Z</time>
      </trkpt>
      <trkpt lat="48.00984" lon="6.9828">
        <ele>1293</ele>
        <time>2024-05-01T19:52:09Z</time>
      </trkpt>
      <trkpt lat="48.01117" lon="6.98332">
        <ele>1247</ele>
        <time>2024-05-01T19:55:12Z</time>
      </trkpt>
      <trkpt lat="48.01216" lon="6.98436">
        <ele>1218</ele>
        <time>2024-05-01T19:57:53Z</time>
      </trkpt>
      <trkpt lat="48.01386" lon="6.98556">
        <ele>1197</ele>
        <time>2024-05-01T20:02:04Z</time>
      </trkpt>
      <trkpt lat="48.01456" lon="6.98567">
        <ele>1191</ele>
        <time>2024-05-01T20:03:38Z</time>
      </trkpt>
      <trkpt lat="48.01519" lon="6.98554">
        <ele>1185</ele>
        <time>2024-05-01T20:05:03Z</time>
      </trkpt>
      <trkpt lat="48.01465" lon="6.9847">
        <ele>1182</ele>
        <time>2024-05-01T20:06:47Z</time>
      </trkpt>
      <trkpt lat="48.01465" lon="6.98444">
        <ele>1179</ele>
        <time>2024-05-01T20:07:10Z</time>
      </trkpt>
      <trkpt lat="48.01499" lon="6.98431">
        <ele>1170</ele>
        <time>2024-05-01T20:07:57Z</time>
      </trkpt>
      <trkpt lat="48.0149" lon="6.98394">
        <ele>1164</ele>
        <time>2024-05-01T20:08:32Z</time>
      </trkpt>
      <trkpt lat="48.01528" lon="6.98379">
        <ele>1152</ele>
        <time>2024-05-01T20:09:25Z</time>
      </trkpt>
      <trkpt lat="48.01521" lon="6.98342">
        <ele>1143</ele>
        <time>2024-05-01T20:09:59Z</time>
      </trkpt>
      <trkpt lat="48.01564" lon="6.98324">
        <ele>1125</ele>
        <time>2024-05-01T20:10:59Z</time>
      </trkpt>
      <trkpt lat="48.0137" lon="6.98115">
        <ele>1113</ele>
        <time>2024-05-01T20:16:18Z</time>
      </trkpt>
      <trkpt lat="48.01255" lon="6.97823">
        <ele>1093</ele>
        <time>2024-05-01T20:21:20Z</time>
      </trkpt>
      <trkpt lat="48.01397" lon="6.97867">
        <ele>1053</ele>
        <time>2024-05-01T20:24:34Z</time>
      </trkpt>
      <trkpt lat="48.01516" lon="6.97961">
        <ele>1028</ele>
        <time>2024-05-01T20:27:33Z</time>
      </trkpt>
      <trkpt lat="48.01613" lon="6.97953">
        <ele>1009</ele>
        <time>2024-05-01T20:29:43Z</time>
      </trkpt>
      <trkpt lat="48.01699" lon="6.97956">
        <ele>998</ele>
        <time>2024-05-01T20:31:38Z</time>
      </trkpt>
      <trkpt lat="48.01765" lon="6.97901">
        <ele>991</ele>
        <time>2024-05-01T20:33:19Z</time>
      </trkpt>
      <trkpt lat="48.0181" lon="6.97815">
        <ele>996</ele>
        <time>2024-05-01T20:34:56Z</time>
      </trkpt>
      <trkpt lat="48.01848" lon="6.97891">
        <ele>1004</ele>
        <time>2024-05-01T20:36:21Z</time>
      </trkpt>
      <trkpt lat="48.01864" lon="6.97951">
        <ele>1010</ele>
        <time>2024-05-01T20:37:18Z</time>
      </trkpt>
      <trkpt lat="48.01938" lon="6.98005">
        <ele>1028</ele>
        <time>2024-05-01T20:39:08Z</time>
      </trkpt>
      <trkpt lat="48.02004" lon="6.98073">
        <ele>1047</ele>
        <time>2024-05-01T20:40:55Z</time>
      </trkpt>
      <trkpt lat="48.02083" lon="6.98175">
        <ele>1066</ele>
        <time>2024-05-01T20:43:15Z</time>
      </trkpt>
      <trkpt lat="48.02168" lon="6.98282">
        <ele>1074</ele>
        <time>2024-05-01T20:45:43Z</time>
      </trkpt>
      <trkpt lat="48.02312" lon="6.98454">
        <ele>1100</ele>
        <time>2024-05-01T20:49:49Z</time>
      </trkpt>
      <trkpt lat="48.02378" lon="6.98517">
        <ele>1107</ele>
        <time>2024-05-01T20:51:33Z</time>
      </trkpt>
      <trkpt lat="48.02513" lon="6.98619">
        <ele>1118</ele>
        <time>2024-05-01T20:54:55Z</time>
      </trkpt>
      <trkpt lat="48.0264" lon="6.98718">
        <ele>1132</ele>
        <time>2024-05-01T20:58:06Z</time>
      </trkpt>
      <trkpt lat="48.02701" lon="6.98755">
        <ele>1132</ele>
        <time>2024-05-01T20:59:34Z</time>
      </trkpt>
      <trkpt lat="48.02727" lon="6.98854">
        <ele>1144</ele>
        <time>2024-05-01T21:01:09Z</time>
      </trkpt>
      <trkpt lat="48.02728" lon="6.98961">
        <ele>1146</ele>
        <time>2024-05-01T21:02:45Z</time>
      </trkpt>
      <trkpt lat="48.02705" lon="6.99026">
        <ele>1148</ele>
        <time>2024-05-01T21:03:50Z</time>
      </trkpt>
      <trkpt lat="48.02685" lon="6.99099">
        <ele>1151</ele>
        <time>2024-05-01T21:05:01Z</time>
      </trkpt>
      <trkpt lat="48.02741" lon="6.99193">
        <ele>1158</ele>
        <time>2024-05-01T21:06:53Z</time>
      </trkpt>
      <trkpt lat="48.02816" lon="6.99308">
        <ele>1157</ele>
        <time>2024-05-01T21:09:16Z</time>
      </trkpt>
      <trkpt lat="48.02868" lon="6.99386">
        <ele>1161</ele>
        <time>2024-05-01T21:10:55Z</time>
      </trkpt>
      <trkpt lat="48.02921" lon="6.99496">
        <ele>1168</ele>
        <time>2024-05-01T21:12:56Z</time>
      </trkpt>
      <trkpt lat="48.02957" lon="6.99402">
        <ele>1162</ele>
        <time>2024-05-01T21:14:32Z</time>
      </trkpt>
      <trkpt lat="48.03034" lon="6.99318">
        <ele>1170</ele>
        <time>2024-05-01T21:16:39Z</time>
      </trkpt>
      <trkpt lat="48.03073" lon="6.99318">
        <ele>1182</ele>
        <time>2024-05-01T21:17:32Z</time>
      </trkpt>
      <trkpt lat="48.03102" lon="6.99425">
        <ele>1199</ele>
        <time>2024-05-01T21:19:15Z</time>
      </trkpt>
      <trkpt lat="48.03179" lon="6.99441">
        <ele>1206</ele>
        <time>2024-05-01T21:20:58Z</time>
      </trkpt>
      <trkpt lat="48.03325" lon="6.99491">
        <ele>1214</ele>
        <time>2024-05-01T21:24:18Z</time>
      </trkpt>
      <trkpt lat="48.03359" lon="6.99626">
        <ele>1226</ele>
        <time>2024-05-01T21:26:27Z</time>
      </trkpt>
      <trkpt lat="48.03397" lon="6.99786">
        <ele>1235</ele>
        <time>2024-05-01T21:28:58Z</time>
      </trkpt>
      <trkpt lat="48.0342" lon="6.9994">
        <ele>1235</ele>
        <time>2024-05-01T21:31:19Z</time>
      </trkpt>
      <trkpt lat="48.03418" lon="7.00026">
        <ele>1236</ele>
        <time>2024-05-01T21:32:36Z</time>
      </trkpt>
      <trkpt lat="48.03422" lon="7.00229">
        <ele>1242</ele>
        <time>2024-05-01T21:35:37Z</time>
      </trkpt>
      <trkpt lat="48.03433" lon="7.0049">
        <ele>1251</ele>
        <time>2024-05-01T21:39:31Z</time>
      </trkpt>
      <trkpt lat="48.03445" lon="7.00576">
        <ele>1256</ele>
        <time>2024-05-01T21:40:49Z</time>
      </trkpt>
      <trkpt lat="48.03566" lon="7.00816">
        <ele>1250</ele>
        <time>2024-05-01T21:45:17Z</time>
      </trkpt>
      <trkpt lat="48.03584" lon="7.009">
        <ele>1257</ele>
        <time>2024-05-01T21:46:36Z</time>
      </trkpt>
      <trkpt lat="48.03513" lon="7.00952">
        <ele>1267</ele>
        <time>2024-05-01T21:48:21Z</time>
      </trkpt>
      <trkpt lat="48.03472" lon="7.01064">
        <ele>1272</ele>
        <time>2024-05-01T21:50:15Z</time>
      </trkpt>
      <trkpt lat="48.03551" lon="7.0119">
        <ele>1281</ele>
        <time>2024-05-01T21:52:49Z</time>
      </trkpt>
      <trkpt lat="48.03641" lon="7.0131">
        <ele>1301</ele>
        <time>2024-05-01T21:55:30Z</time>
      </trkpt>
      <trkpt lat="48.03691" lon="7.01456">
        <ele>1312</ele>
        <time>2024-05-01T21:57:57Z</time>
      </trkpt>
      <trkpt lat="48.03731" lon="7.01644">
        <ele>1337</ele>
        <time>2024-05-01T22:00:53Z</time>
      </trkpt>
      <trkpt lat="48.03715" lon="7.01691">
        <ele>1332</ele>
        <time>2024-05-01T22:01:40Z</time>
      </trkpt>
      <trkpt lat="48.03654" lon="7.01808">
        <ele>1315</ele>
        <time>2024-05-01T22:03:52Z</time>
      </trkpt>
      <trkpt lat="48.036" lon="7.01894">
        <ele>1290</ele>
        <time>2024-05-01T22:05:37Z</time>
      </trkpt>
      <trkpt lat="48.03668" lon="7.0196">
        <ele>1304</ele>
        <time>2024-05-01T22:07:26Z</time>
      </trkpt>
      <trkpt lat="48.03695" lon="7.0209">
        <ele>1295</ele>
        <time>2024-05-01T22:09:27Z</time>
      </trkpt>
      <trkpt lat="48.03659" lon="7.02202">
        <ele>1280</ele>
        <time>2024-05-01T22:11:18Z</time>
      </trkpt>
      <trkpt lat="48.03616" lon="7.02369">
        <ele>1251</ele>
        <time>2024-05-01T22:13:58Z</time>
      </trkpt>
      <trkpt lat="48.03598" lon="7.02427">
        <ele>1242</ele>
        <time>2024-05-01T22:14:55Z</time>
      </trkpt>
      <trkpt lat="48.03641" lon="7.02568">
        <ele>1223</ele>
        <time>2024-05-01T22:17:13Z</time>
      </trkpt>
      <trkpt lat="48.03585" lon="7.0262">
        <ele>1216</ele>
        <time>2024-05-01T22:18:41Z</time>
      </trkpt>
      <trkpt lat="48.03521" lon="7.02701">
        <ele>1202</ele>
        <time>2024-05-01T22:20:33Z</time>
      </trkpt>
      <trkpt lat="48.03557" lon="7.02813">
        <ele>1239</ele>
        <time>2024-05-01T22:22:24Z</time>
      </trkpt>
      <trkpt lat="48.03513" lon="7.02972">
        <ele>1264</ele>
        <time>2024-05-01T22:24:57Z</time>
      </trkpt>
      <trkpt lat="48.03488" lon="7.03139">
        <ele>1272</ele>
        <time>2024-05-01T22:27:30Z</time>
      </trkpt>
      <trkpt lat="48.03461" lon="7.03366">
        <ele>1275</ele>
        <time>2024-05-01T22:30:56Z</time>
      </trkpt>
      <trkpt lat="48.03416" lon="7.0345">
        <ele>1266</ele>
        <time>2024-05-01T22:32:32Z</time>
      </trkpt>
      <trkpt lat="48.03336" lon="7.03395">
        <ele>1251</ele>
        <time>2024-05-01T22:34:29Z</time>
      </trkpt>
      <trkpt lat="48.0328" lon="7.03322">
        <ele>1228</ele>
        <time>2024-05-01T22:36:08Z</time>
      </trkpt>
      <trkpt lat="48.03172" lon="7.03262">
        <ele>1184</ele>
        <time>2024-05-01T22:38:42Z</time>
      </trkpt>
      <trkpt lat="48.03043" lon="7.03291">
        <ele>1155</ele>
        <time>2024-05-01T22:41:36Z</time>
      </trkpt>
      <trkpt lat="48.02964" lon="7.03312">
        <ele>1138</ele>
        <time>2024-05-01T22:43:23Z</time>
      </trkpt>
      <trkpt lat="48.02967" lon="7.03267">
        <ele>1134</ele>
        <time>2024-05-01T22:44:04Z</time>
      </trkpt>
      <trkpt lat="48.03079" lon="7.03171">
        <ele>1135</ele>
        <time>2024-05-01T22:46:56Z</time>
      </trkpt>
      <trkpt lat="48.03066" lon="7.03126">
        <ele>1119</ele>
        <time>2024-05-01T22:47:40Z</time>
      </trkpt>
      <trkpt lat="48.03037" lon="7.03137">
        <ele>1117</ele>
        <time>2024-05-01T22:48:20Z</time>
      </trkpt>
      <trkpt lat="48.03055" lon="7.03095">
        <ele>1108</ele>
        <time>2024-05-01T22:49:04Z</time>
      </trkpt>
      <trkpt lat="48.03039" lon="7.03095">
        <ele>1105</ele>
        <time>2024-05-01T22:49:26Z</time>
      </trkpt>
      <trkpt lat="48.0305" lon="7.03043">
        <ele>1090</ele>
        <time>2024-05-01T22:50:14Z</time>
      </trkpt>
      <trkpt lat="48.03032" lon="7.03043">
        <ele>1086</ele>
        <time>2024-05-01T22:50:38Z</time>
      </trkpt>
      <trkpt lat="48.03054" lon="7.03012">
        <ele>1081</ele>
        <time>2024-05-01T22:51:19Z</time>
      </trkpt>
      <trkpt lat="48.03019" lon="7.03027">
        <ele>1077</ele>
        <time>2024-05-01T22:52:07Z</time>
      </trkpt>
      <trkpt lat="48.03059" lon="7.02941">
        <ele>1058</ele>
        <time>2024-05-01T22:53:41Z</time>
      </trkpt>
      <trkpt lat="48.03012" lon="7.02944">
        <ele>1043</ele>
        <time>2024-05-01T22:54:43Z</time>
      </trkpt>
      <trkpt lat="48.03068" lon="7.02891">
        <ele>1044</ele>
        <time>2024-05-01T22:56:12Z</time>
      </trkpt>
      <trkpt lat="48.02948" lon="7.02897">
        <ele>1004</ele>
        <time>2024-05-01T22:58:52Z</time>
      </trkpt>
      <trkpt lat="48.03039" lon="7.02743">
        <ele>981</ele>
        <time>2024-05-01T23:01:55Z</time>
      </trkpt>
      <trkpt lat="48.02994" lon="7.02719">
        <ele>959</ele>
        <time>2024-05-01T23:02:59Z</time>
      </trkpt>
      <trkpt lat="48.02931" lon="7.02758">
        <ele>951</ele>
        <time>2024-05-01T23:04:30Z</time>
      </trkpt>
      <trkpt lat="48.02849" lon="7.02581">
        <ele>930</ele>
        <time>2024-05-01T23:07:42Z</time>
      </trkpt>
      <trkpt lat="48.0282" lon="7.02565">
        <ele>934</ele>
        <time>2024-05-01T23:08:24Z</time>
      </trkpt>
      <trkpt lat="48.02771" lon="7.02578">
        <ele>932</ele>
        <time>2024-05-01T23:09:30Z</time>
      </trkpt>
      <trkpt lat="48.02718" lon="7.02552">
        <ele>932</ele>
        <time>2024-05-01T23:10:44Z</time>
      </trkpt>
      <trkpt lat="48.02658" lon="7.0255">
        <ele>923</ele>
        <time>2024-05-01T23:12:05Z</time>
      </trkpt>
      <trkpt lat="48.02588" lon="7.02565">
        <ele>905</ele>
        <time>2024-05-01T23:13:39Z</time>
      </trkpt>
      <trkpt lat="48.02554" lon="7.02597">
        <ele>888</ele>
        <time>2024-05-01T23:14:33Z</time>
      </trkpt>
      <trkpt lat="48.02522" lon="7.02576">
        <ele>879</ele>
        <time>2024-05-01T23:15:19Z</time>
      </trkpt>
      <trkpt lat="48.02502" lon="7.02591">
        <ele>871</ele>
        <time>2024-05-01T23:15:49Z</time>
      </trkpt>
      <trkpt lat="48.02491" lon="7.02542">
        <ele>868</ele>
        <time>2024-05-01T23:16:35Z</time>
      </trkpt>
      <trkpt lat="48.02464" lon="7.0257">
        <ele>853</ele>
        <time>2024-05-01T23:17:19Z</time>
      </trkpt>
      <trkpt lat="48.02452" lon="7.02547">
        <ele>848</ele>
        <time>2024-05-01T23:17:45Z</time>
      </trkpt>
      <trkpt lat="48.02437" lon="7.02565">
        <ele>840</ele>
        <time>2024-05-01T23:18:11Z</time>
      </trkpt>
      <trkpt lat="48.02425" lon="7.02531">
        <ele>835</ele>
        <time>2024-05-01T23:18:45Z</time>
      </trkpt>
      <trkpt lat="48.02412" lon="7.02492">
        <ele>830</ele>
        <time>2024-05-01T23:19:24Z</time>
      </trkpt>
      <trkpt lat="48.02401" lon="7.02518">
        <ele>825</ele>
        <time>2024-05-01T23:19:51Z</time>
      </trkpt>
      <trkpt lat="48.02373" lon="7.02414">
        <ele>820</ele>
        <time>2024-05-01T23:21:31Z</time>
      </trkpt>
      <trkpt lat="48.02333" lon="7.02409">
        <ele>807</ele>
        <time>2024-05-01T23:22:25Z</time>
      </trkpt>
      <trkpt lat="48.02333" lon="7.02461">
        <ele>802</ele>
        <time>2024-05-01T23:23:11Z</time>
      </trkpt>
      <trkpt lat="48.02355" lon="7.0255">
        <ele>804</ele>
        <time>2024-05-01T23:24:36Z</time>
      </trkpt>
      <trkpt lat="48.02347" lon="7.02612">
        <ele>798</ele>
        <time>2024-05-01T23:25:32Z</time>
      </trkpt>
      <trkpt lat="48.02292" lon="7.0274">
        <ele>783</ele>
        <time>2024-05-01T23:27:48Z</time>
      </trkpt>
      <trkpt lat="48.02241" lon="7.02792">
        <ele>764</ele>
        <time>2024-05-01T23:29:11Z</time>
      </trkpt>
      <trkpt lat="48.02211" lon="7.02834">
        <ele>748</ele>
        <time>2024-05-01T23:30:05Z</time>
      </trkpt>
      <trkpt lat="48.02202" lon="7.02821">
        <ele>746</ele>
        <time>2024-05-01T23:30:22Z</time>
      </trkpt>
      <trkpt lat="48.0217" lon="7.02831">
        <ele>729</ele>
        <time>2024-05-01T23:31:06Z</time>
      </trkpt>
      <trkpt lat="48.02116" lon="7.02824">
        <ele>716</ele>
        <time>2024-05-01T23:32:18Z</time>
      </trkpt>
      <trkpt lat="48.02071" lon="7.02824">
        <ele>705</ele>
        <time>2024-05-01T23:33:18Z</time>
      </trkpt>
      <trkpt lat="48.02026" lon="7.02839">
        <ele>690</ele>
        <time>2024-05-01T23:34:20Z</time>
      </trkpt>
      <trkpt lat="48.01947" lon="7.02889">
        <ele>663</ele>
        <time>2024-05-01T23:36:14Z</time>
      </trkpt>
      <trkpt lat="48.01841" lon="7.02912">
        <ele>653</ele>
        <time>2024-05-01T23:38:37Z</time>
      </trkpt>
      <trkpt lat="48.01719" lon="7.02967">
        <ele>640</ele>
        <time>2024-05-01T23:41:27Z</time>
      </trkpt>
      <trkpt lat="48.01591" lon="7.03038">
        <ele>625</ele>
        <time>2024-05-01T23:44:29Z</time>
      </trkpt>
      <trkpt lat="48.01514" lon="7.03098">
        <ele>617</ele>
        <time>2024-05-01T23:46:25Z</time>
      </trkpt>
      <trkpt lat="48.01438" lon="7.03186">
        <ele>609</ele>
        <time>2024-05-01T23:48:34Z</time>
      </trkpt>
      <trkpt lat="48.0137" lon="7.03293">
        <ele>600</ele>
        <time>2024-05-01T23:50:45Z</time>
      </trkpt>
      <trkpt lat="48.01358" lon="7.03382">
        <ele>586</ele>
        <time>2024-05-01T23:52:06Z</time>
      </trkpt>
      <trkpt lat="48.01287" lon="7.03479">
        <ele>578</ele>
        <time>2024-05-01T23:54:15Z</time>
      </trkpt>
      <trkpt lat="48.01228" lon="7.03583">
        <ele>570</ele>
        <time>2024-05-01T23:56:16Z</time>
      </trkpt>
      <trkpt lat="48.01181" lon="7.03677">
        <ele>561</ele>
        <time>2024-05-01T23:58:01Z</time>
      </trkpt>
      <trkpt lat="48.01119" lon="7.03721">
        <ele>563</ele>
        <time>2024-05-01T23:59:33Z</time>
      </trkpt>
      <trkpt lat="48.01072" lon="7.03802">
        <ele>553</ele>
        <time>2024-05-02T00:01:08Z</time>
      </trkpt>
      <trkpt lat="48.01083" lon="7.03943">
        <ele>563</ele>
        <time>2024-05-02T00:03:15Z</time>
      </trkpt>
      <trkpt lat="48.0098" lon="7.04032">
        <ele>555</ele>
        <time>2024-05-02T00:05:54Z</time>
      </trkpt>
      <trkpt lat="48.00908" lon="7.04176">
        <ele>543</ele>
        <time>2024-05-02T00:08:34Z</time>
      </trkpt>
      <trkpt lat="48.00872" lon="7.04327">
        <ele>532</ele>
        <time>2024-05-02T00:10:58Z</time>
      </trkpt>
      <trkpt lat="48.00912" lon="7.04604">
        <ele>514</ele>
        <time>2024-05-02T00:15:11Z</time>
      </trkpt>
      <trkpt lat="48.00959" lon="7.04818">
        <ele>514</ele>
        <time>2024-05-02T00:18:32Z</time>
      </trkpt>
      <trkpt lat="48.01023" lon="7.0506">
        <ele>509</ele>
        <time>2024-05-02T00:22:24Z</time>
      </trkpt>
      <trkpt lat="48.01077" lon="7.0528">
        <ele>500</ele>
        <time>2024-05-02T00:25:53Z</time>
      </trkpt>
      <trkpt lat="48.01095" lon="7.05363">
        <ele>496</ele>
        <time>2024-05-02T00:27:11Z</time>
      </trkpt>
      <trkpt lat="48.01309" lon="7.05697">
        <ele>494</ele>
        <time>2024-05-02T00:34:04Z</time>
      </trkpt>
      <trkpt lat="48.01358" lon="7.05833">
        <ele>491</ele>
        <time>2024-05-02T00:36:22Z</time>
      </trkpt>
      <trkpt lat="48.01325" lon="7.05937">
        <ele>488</ele>
        <time>2024-05-02T00:38:05Z</time>
      </trkpt>
      <trkpt lat="48.01323" lon="7.06107">
        <ele>488</ele>
        <time>2024-05-02T00:40:36Z</time>
      </trkpt>
      <trkpt lat="48.01325" lon="7.06248">
        <ele>487</ele>
        <time>2024-05-02T00:42:42Z</time>
      </trkpt>
      <trkpt lat="48.01384" lon="7.06316">
        <ele>488</ele>
        <time>2024-05-02T00:44:22Z</time>
      </trkpt>
      <trkpt lat="48.01453" lon="7.06611">
        <ele>485</ele>
        <time>2024-05-02T00:49:01Z</time>
      </trkpt>
      <trkpt lat="48.0144" lon="7.06853">
        <ele>484</ele>
        <time>2024-05-02T00:52:37Z</time>
      </trkpt>
      <trkpt lat="48.0139" lon="7.07114">
        <ele>481</ele>
        <time>2024-05-02T00:56:40Z</time>
      </trkpt>
      <trkpt lat="48.01336" lon="7.07172">
        <ele>479</ele>
        <time>2024-05-02T00:58:08Z</time>
      </trkpt>
      <trkpt lat="48.01329" lon="7.07297">
        <ele>477</ele>
        <time>2024-05-02T01:00:00Z</time>
      </trkpt>
    </trkseg>
  </trk>
</gpx>